Time;durP1;ratioP1;P1;durP2;ratioP2;P2;SDS_P1;SDS_P2;PMS_P1;PMS_P2;Temp;Humidity;BMP_temperature;BMP_pressure;BME280_temperature;BME280_humidity;BME280_pressure;Samples;Min_cycle;Max_cycle;Signal;HPM_P1;HPM_P2
2021/05/12 00:02:04;;;;;;;9.68;5.72;;;12.10;99.90;;;;;;4958082;28;20126;-68
2021/05/12 00:04:42;;;;;;;11.48;6.55;;;12.20;99.90;;;;;;4971392;28;20130;-69
2021/05/12 00:07:22;;;;;;;11.05;7.00;;;12.20;99.90;;;;;;4961613;28;20422;-68
2021/05/12 00:10:22;;;;;;;13.75;6.57;;;12.20;99.90;;;;;;4973298;28;20051;-68
2021/05/12 00:17:21;;;;;;;14.02;7.28;;;12.20;99.90;;;;;;4963521;28;20042;-68
2021/05/12 00:19:56;;;;;;;16.25;8.75;;;12.20;99.90;;;;;;4968929;28;20078;-68
2021/05/12 00:22:49;;;;;;;15.75;8.35;;;12.20;99.90;;;;;;4957138;28;20134;-68
2021/05/12 00:25:30;;;;;;;14.93;7.60;;;12.10;99.90;;;;;;4957909;28;20054;-68
2021/05/12 00:32:12;;;;;;;11.43;6.85;;;12.10;99.90;;;;;;4970932;28;20069;-68
2021/05/12 00:42:09;;;;;;;18.88;10.23;;;12.10;99.90;;;;;;4962411;28;20062;-68
2021/05/12 00:45:24;;;;;;;18.92;9.52;;;12.10;99.90;;;;;;4971050;28;20181;-68
2021/05/12 00:52:08;;;;;;;17.05;8.90;;;12.10;99.90;;;;;;4960827;28;20030;-68
2021/05/12 00:54:38;;;;;;;16.52;9.27;;;12.10;99.90;;;;;;4955987;29;20062;-68
2021/05/12 00:57:12;;;;;;;17.13;9.63;;;12.10;99.90;;;;;;4956058;29;20460;-68
2021/05/12 00:59:47;;;;;;;19.77;10.23;;;12.10;99.90;;;;;;4955912;28;20039;-68
2021/05/12 01:02:24;;;;;;;20.08;10.73;;;12.20;99.90;;;;;;4956901;28;20039;-68
2021/05/12 01:05:03;;;;;;;21.00;11.48;;;12.20;99.90;;;;;;4970599;28;20102;-68
2021/05/12 01:07:32;;;;;;;22.70;10.82;;;12.10;99.90;;;;;;4959973;28;20506;-69
2021/05/12 01:10:24;;;;;;;26.52;13.25;;;12.10;99.90;;;;;;4963331;28;20047;-69
2021/05/12 01:17:33;;;;;;;;;;;;;;;;;;;;;
2021/05/12 01:20:06;;;;;;;23.15;11.75;;;12.10;99.90;;;;;;4960889;28;20043;-68
2021/05/12 01:23:00;;;;;;;23.75;11.63;;;12.10;99.90;;;;;;4961728;28;20119;-68
2021/05/12 01:26:07;;;;;;;22.27;10.95;;;12.00;99.90;;;;;;4961702;28;20062;-68
2021/05/12 01:29:29;;;;;;;20.00;11.20;;;12.00;99.90;;;;;;4968564;28;20049;-69
2021/05/12 01:32:08;;;;;;;20.80;10.15;;;12.00;99.90;;;;;;4955413;28;20040;-68
2021/05/12 01:35:09;;;;;;;27.85;12.82;;;12.10;99.90;;;;;;4956934;28;20110;-68
2021/05/12 01:37:58;;;;;;;21.20;11.50;;;12.00;99.90;;;;;;4956986;28;20059;-68
2021/05/12 01:44:39;;;;;;;20.05;9.95;;;12.00;99.90;;;;;;4972673;28;20037;-69
2021/05/12 01:47:12;;;;;;;18.90;9.38;;;12.00;99.90;;;;;;4968636;28;20126;-69
2021/05/12 01:50:14;;;;;;;15.20;9.15;;;12.00;99.90;;;;;;4959535;28;20043;-69
2021/05/12 01:52:45;;;;;;;18.30;9.13;;;12.10;99.90;;;;;;4971189;28;20132;-68
2021/05/12 01:56:05;;;;;;;16.73;8.85;;;12.00;99.90;;;;;;4961910;28;20050;-68
2021/05/12 02:02:02;;;;;;;15.30;8.00;;;12.00;99.90;;;;;;4956381;28;20101;-68
2021/05/12 02:04:36;;;;;;;16.98;8.73;;;11.90;99.90;;;;;;4974478;28;20104;-68
2021/05/12 02:07:47;;;;;;;15.13;7.82;;;12.00;99.90;;;;;;4958842;28;20066;-68
2021/05/12 02:14:37;;;;;;;14.75;7.47;;;12.00;99.90;;;;;;4961930;28;20139;-68
2021/05/12 02:17:15;;;;;;;;;;;11.90;99.90;;;;;;4969468;28;20074;-68
2021/05/12 02:19:54;;;;;;;13.57;5.93;;;12.00;99.90;;;;;;4969858;28;19929;-68
2021/05/12 02:22:21;;;;;;;21.20;10.15;;;12.00;99.90;;;;;;4969898;28;20117;-69
2021/05/12 02:25:13;;;;;;;16.60;9.25;;;12.00;99.90;;;;;;4960156;28;20078;-69
2021/05/12 02:28:16;;;;;;;16.27;8.70;;;12.00;99.90;;;;;;4957067;28;20062;-69
2021/05/12 02:30:47;;;;;;;15.75;8.25;;;12.10;99.90;;;;;;4957491;28;20171;-68
2021/05/12 02:33:14;;;;;;;15.07;7.85;;;12.00;99.90;;;;;;4962753;28;20490;-69
2021/05/12 02:40:18;;;;;;;17.52;9.25;;;12.10;99.90;;;;;;4964984;28;20126;-69
2021/05/12 02:42:50;;;;;;;19.95;9.70;;;12.00;99.90;;;;;;4974740;28;20066;-68
2021/05/12 02:46:00;;;;;;;18.70;8.85;;;12.00;99.90;;;;;;4960816;28;20039;-68
2021/05/12 02:52:55;;;;;;;20.42;7.63;;;12.00;99.90;;;;;;4962026;28;20030;-69
2021/05/12 02:56:04;;;;;;;27.35;11.85;;;12.00;99.90;;;;;;4971929;28;20394;-69
2021/05/12 03:10:33;;;;;;;18.67;8.63;;;11.90;99.90;;;;;;4958464;29;20154;-68
2021/05/12 03:13:05;;;;;;;20.95;8.82;;;12.00;99.90;;;;;;4960434;28;20086;-68
2021/05/12 03:15:36;;;;;;;20.00;9.95;;;12.00;99.90;;;;;;4959513;28;20043;-69
2021/05/12 03:18:37;;;;;;;26.67;10.73;;;12.10;99.90;;;;;;4958293;28;20134;-69
2021/05/12 03:25:31;;;;;;;23.65;10.82;;;12.00;99.90;;;;;;4968984;28;20037;-69
2021/05/12 03:28:17;;;;;;;24.67;10.50;;;12.00;99.90;;;;;;4973329;28;20239;-68
2021/05/12 03:30:54;;;;;;;27.92;12.38;;;12.00;99.90;;;;;;4973908;28;20137;-68
2021/05/12 03:33:30;;;;;;;24.52;11.40;;;12.00;99.90;;;;;;4962833;28;20039;-68
2021/05/12 03:36:12;;;;;;;27.17;11.60;;;12.00;99.90;;;;;;4958504;28;20039;-68
2021/05/12 03:38:47;;;;;;;23.20;11.48;;;12.00;99.90;;;;;;4958567;28;20119;-69
2021/05/12 03:41:22;;;;;;;24.08;10.82;;;12.00;99.90;;;;;;4957270;29;20483;-68
2021/05/12 03:48:02;;;;;;;19.83;11.07;;;12.00;99.90;;;;;;4965388;28;20050;-69
2021/05/12 03:50:34;;;;;;;21.55;10.50;;;12.00;99.90;;;;;;4976533;28;20043;-69
2021/05/12 03:53:34;;;;;;;20.17;9.63;;;12.00;99.90;;;;;;4964602;28;20074;-69
2021/05/12 03:56:07;;;;;;;21.38;10.25;;;12.00;99.90;;;;;;4964473;28;20062;-68
2021/05/12 03:58:46;;;;;;;28.05;11.55;;;12.00;99.90;;;;;;4962521;28;20078;-69
2021/05/12 04:01:24;;;;;;;21.85;10.07;;;12.00;99.90;;;;;;4967068;28;20058;-69
2021/05/12 04:08:07;;;;;;;24.92;11.10;;;12.00;99.90;;;;;;4961126;28;20050;-68
2021/05/12 04:10:37;;;;;;;26.10;12.07;;;12.00;99.90;;;;;;4969415;28;20063;-69
2021/05/12 04:13:07;;;;;;;23.25;10.50;;;12.00;99.90;;;;;;4942626;28;20058;-69
2021/05/12 04:23:09;;;;;;;19.05;9.15;;;12.00;99.90;;;;;;4958182;29;20086;-69
2021/05/12 04:26:07;;;;;;;20.60;9.38;;;12.00;99.90;;;;;;4973170;28;20078;-68
2021/05/12 04:33:00;;;;;;;20.55;10.05;;;12.10;99.90;;;;;;4971458;28;20093;-69
2021/05/12 04:35:34;;;;;;;19.48;9.25;;;12.10;99.90;;;;;;4975891;28;20067;-68
2021/05/12 04:38:02;;;;;;;20.52;9.35;;;12.10;99.90;;;;;;4971468;28;20047;-68
2021/05/12 04:40:46;;;;;;;17.48;9.35;;;12.10;99.90;;;;;;4957330;28;20050;-68
2021/05/12 04:43:37;;;;;;;22.13;11.13;;;12.10;99.90;;;;;;4974706;28;20530;-68
2021/05/12 04:46:25;;;;;;;;;;;;;;;;;;;;;
2021/05/12 04:53:12;;;;;;;22.33;9.13;;;12.10;99.90;;;;;;4974164;28;20053;-69
2021/05/12 05:00:04;;;;;;;20.33;9.70;;;12.10;99.90;;;;;;4967050;28;20045;-68
2021/05/12 05:03:17;;;;;;;18.33;9.57;;;12.20;99.90;;;;;;4973825;28;20055;-69
2021/05/12 05:06:14;;;;;;;19.63;9.27;;;12.10;99.90;;;;;;4958350;28;20050;-69
2021/05/12 05:08:47;;;;;;;20.33;9.50;;;12.20;99.90;;;;;;4953696;28;20059;-68
2021/05/12 05:15:45;;;;;;;26.30;11.55;;;12.20;99.90;;;;;;4956740;28;20025;-68
2021/05/12 05:18:14;;;;;;;19.30;9.48;;;12.20;99.90;;;;;;4970404;28;20089;-69
2021/05/12 05:20:42;;;;;;;20.27;10.00;;;12.20;99.90;;;;;;4967800;28;20071;-68
2021/05/12 05:23:34;;;;;;;18.13;9.93;;;12.20;99.90;;;;;;4971773;28;20066;-68
2021/05/12 05:26:15;;;;;;;22.08;10.13;;;12.20;99.90;;;;;;4966571;28;20063;-69
2021/05/12 05:29:13;;;;;;;21.02;10.85;;;12.20;99.90;;;;;;4957560;28;20050;-68
2021/05/12 05:35:45;;;;;;;19.15;10.55;;;12.20;99.90;;;;;;4971442;28;20081;-68
2021/05/12 05:38:20;;;;;;;17.85;9.10;;;12.20;99.90;;;;;;4963893;28;20047;-68
2021/05/12 05:41:18;;;;;;;20.80;10.40;;;12.30;99.90;;;;;;4976019;28;20118;-69
2021/05/12 05:43:56;;;;;;;19.67;10.23;;;12.30;99.90;;;;;;4966253;28;20434;-69
2021/05/12 05:50:43;;;;;;;14.57;7.55;;;12.40;99.90;;;;;;4956055;28;20439;-69
2021/05/12 05:53:46;;;;;;;11.93;7.15;;;12.50;99.90;;;;;;4970274;28;20039;-68
2021/05/12 05:56:25;;;;;;;18.15;8.88;;;12.60;99.90;;;;;;4966010;28;20043;-69
2021/05/12 06:03:22;;;;;;;15.07;8.02;;;12.70;99.90;;;;;;4960967;28;20093;-69
2021/05/12 06:05:52;;;;;;;11.27;7.22;;;12.70;99.90;;;;;;4971843;28;20055;-69
2021/05/12 06:20:03;;;;;;;13.77;6.93;;;12.80;99.90;;;;;;4955221;28;20506;-68
2021/05/12 06:26:27;;;;;;;13.40;7.25;;;12.80;99.90;;;;;;4992184;28;20057;-69
2021/05/12 06:29:15;;;;;;;11.73;6.13;;;12.90;99.90;;;;;;4962954;28;20577;-69
2021/05/12 06:35:50;;;;;;;10.68;5.57;;;12.90;99.90;;;;;;4977757;28;20414;-69
2021/05/12 06:38:46;;;;;;;9.95;5.43;;;12.80;99.90;;;;;;4972807;28;20049;-69
2021/05/12 06:48:32;;;;;;;9.15;5.30;;;12.70;99.90;;;;;;4987027;28;20434;-69
2021/05/12 06:51:19;;;;;;;10.68;5.93;;;12.80;99.90;;;;;;4988311;28;20046;-69
2021/05/12 07:08:34;;;;;;;7.13;3.70;;;13.00;99.90;;;;;;4958785;28;20466;-69
2021/05/12 07:23:29;;;;;;;10.27;2.85;;;13.20;99.90;;;;;;4955102;28;20038;-69
2021/05/12 07:26:14;;;;;;;8.15;2.58;;;13.20;99.90;;;;;;4955174;28;20071;-69
2021/05/12 07:32:39;;;;;;;5.85;2.50;;;13.30;99.90;;;;;;4965423;28;20442;-69
2021/05/12 07:35:59;;;;;;;7.40;2.90;;;13.30;99.90;;;;;;4966288;28;20046;-69
2021/05/12 07:38:49;;;;;;;7.97;3.10;;;13.40;99.90;;;;;;4958339;28;20062;-69
2021/05/12 07:41:27;;;;;;;4.43;2.38;;;13.40;99.90;;;;;;4959057;28;20053;-69
2021/05/12 07:44:20;;;;;;;5.97;1.90;;;13.50;99.90;;;;;;4953822;28;20073;-69
2021/05/12 07:51:10;;;;;;;3.63;1.77;;;13.60;99.90;;;;;;4956993;28;20090;-69
2021/05/12 07:53:47;;;;;;;4.28;1.92;;;13.70;99.90;;;;;;4967529;28;20043;-68
2021/05/12 07:56:31;;;;;;;3.30;1.48;;;13.70;99.90;;;;;;4991192;28;20053;-69
2021/05/12 07:59:12;;;;;;;4.78;1.52;;;13.80;99.90;;;;;;4957213;28;20047;-69
2021/05/12 08:01:47;;;;;;;5.30;1.63;;;13.80;99.90;;;;;;4958382;28;20051;-69
2021/05/12 08:08:37;;;;;;;3.95;1.40;;;13.90;99.90;;;;;;4974736;28;20086;-69
2021/05/12 08:14:56;;;;;;;6.72;1.02;;;14.00;99.90;;;;;;4949187;28;20055;-69
2021/05/12 08:17:26;;;;;;;4.85;1.55;;;14.10;99.90;;;;;;4957487;28;20058;-68
2021/05/12 08:20:16;;;;;;;3.75;0.95;;;14.10;99.90;;;;;;4957546;28;20062;-69
2021/05/12 08:22:56;;;;;;;4.28;1.08;;;14.20;99.90;;;;;;4957727;28;20051;-69
2021/05/12 08:25:32;;;;;;;2.97;1.10;;;14.20;99.90;;;;;;4957390;28;20058;-69
2021/05/12 08:28:11;;;;;;;7.25;1.15;;;14.20;99.90;;;;;;4968543;28;20554;-68
2021/05/12 08:30:49;;;;;;;4.28;1.02;;;14.30;99.90;;;;;;4969473;28;20066;-69
2021/05/12 08:33:36;;;;;;;5.57;1.98;;;14.30;99.90;;;;;;4959505;28;20062;-69
2021/05/12 08:40:01;;;;;;;7.80;1.38;;;14.40;99.90;;;;;;4960689;28;20050;-69
2021/05/12 08:43:07;;;;;;;3.50;0.93;;;14.40;99.90;;;;;;4957419;28;20110;-69
2021/05/12 08:46:12;;;;;;;3.63;1.00;;;14.50;99.90;;;;;;4962532;28;20046;-69
2021/05/12 08:52:34;;;;;;;4.97;0.82;;;14.60;99.90;;;;;;4957099;28;20077;-69
2021/05/12 08:55:05;;;;;;;5.50;1.00;;;14.60;99.90;;;;;;4966097;28;20070;-69
2021/05/12 08:57:39;;;;;;;2.30;0.60;;;14.60;99.90;;;;;;4968974;28;20075;-69
2021/05/12 09:00:42;;;;;;;3.38;0.90;;;14.60;99.90;;;;;;4953729;28;20086;-69
2021/05/12 09:03:17;;;;;;;3.63;0.70;;;14.70;99.90;;;;;;4962399;28;20101;-69
2021/05/12 09:05:47;;;;;;;5.80;1.13;;;14.70;99.90;;;;;;4974353;28;20047;-68
2021/05/12 09:12:42;;;;;;;2.88;0.68;;;14.80;99.90;;;;;;4958058;28;20118;-69
2021/05/12 09:15:26;;;;;;;3.25;0.75;;;14.80;99.90;;;;;;4957442;28;20043;-69
2021/05/12 09:26:24;;;;;;;5.75;1.27;;;15.00;99.90;;;;;;4956634;28;20158;-69
2021/05/12 09:33:09;;;;;;;4.47;0.93;;;14.90;99.90;;;;;;4956345;29;20578;-69
2021/05/12 09:35:59;;;;;;;4.93;0.80;;;15.00;99.90;;;;;;4959601;28;20035;-69
2021/05/12 09:42:42;;;;;;;3.17;0.88;;;15.00;99.90;;;;;;4970574;28;20034;-69
2021/05/12 09:46:04;;;;;;;3.10;0.90;;;15.00;99.90;;;;;;4959372;28;20055;-69
2021/05/12 09:48:51;;;;;;;;;;;;;;;;;;;;;
2021/05/12 09:51:38;;;;;;;3.30;1.02;;;15.10;99.90;;;;;;4915715;29;20080;-70
2021/05/12 09:58:12;;;;;;;4.82;1.48;;;15.20;99.90;;;;;;4926419;29;20507;-69
2021/05/12 10:01:25;;;;;;;6.22;1.25;;;15.10;99.90;;;;;;4933509;29;20142;-69
2021/05/12 10:07:52;;;;;;;5.82;1.52;;;15.40;99.90;;;;;;4919623;29;20110;-69
2021/05/12 10:10:44;;;;;;;5.57;1.50;;;15.40;99.90;;;;;;4917103;29;20056;-69
2021/05/12 10:17:46;;;;;;;8.02;1.65;;;15.40;99.90;;;;;;4912117;29;20095;-69
2021/05/12 10:20:20;;;;;;;7.80;1.40;;;15.50;99.90;;;;;;4926336;29;20066;-69
2021/05/12 10:23:26;;;;;;;4.03;1.15;;;15.50;99.90;;;;;;4918773;29;20047;-69
2021/05/12 10:26:04;;;;;;;6.80;1.35;;;15.50;99.90;;;;;;4975327;28;20042;-69
2021/05/12 10:32:53;;;;;;;2.90;0.57;;;15.60;99.90;;;;;;4974623;28;20093;-69
2021/05/12 10:35:49;;;;;;;5.88;1.25;;;15.60;99.90;;;;;;4960633;28;20047;-70
2021/05/12 10:42:44;;;;;;;6.28;1.15;;;15.70;99.90;;;;;;4959540;28;20109;-69
2021/05/12 10:45:54;;;;;;;5.05;1.08;;;15.40;99.90;;;;;;4971154;28;20066;-69
2021/05/12 10:48:40;;;;;;;6.60;1.10;;;15.70;99.90;;;;;;4958044;28;20406;-68
2021/05/12 10:55:28;;;;;;;8.45;1.63;;;15.70;99.90;;;;;;4955144;28;20038;-69
2021/05/12 10:58:14;;;;;;;7.72;1.05;;;15.80;99.90;;;;;;4954999;28;20059;-69
2021/05/12 11:00:57;;;;;;;7.72;1.30;;;15.80;99.90;;;;;;4986389;28;20106;-69
2021/05/12 11:04:04;;;;;;;;;;;;;;;;;;;;;
2021/05/12 11:10:20;;;;;;;9.93;1.27;;;15.80;99.90;;;;;;4955199;29;20047;-68
2021/05/12 11:13:19;;;;;;;8.00;1.55;;;15.80;99.90;;;;;;4955045;28;20043;-69
2021/05/12 11:16:04;;;;;;;8.63;1.23;;;15.80;99.90;;;;;;4971515;28;20478;-69
2021/05/12 11:18:41;;;;;;;5.03;1.17;;;15.80;99.90;;;;;;4957364;28;20067;-69
2021/05/12 11:25:40;;;;;;;3.83;1.20;;;16.00;99.90;;;;;;4954756;28;20050;-68
2021/05/12 11:35:52;;;;;;;5.20;1.20;;;16.00;99.90;;;;;;4971763;28;20029;-68
2021/05/12 11:42:45;;;;;;;5.82;1.17;;;16.30;99.90;;;;;;4963288;28;20054;-69
2021/05/12 11:45:19;;;;;;;3.85;1.15;;;16.40;99.90;;;;;;4963263;28;20039;-69
2021/05/12 11:48:08;;;;;;;5.75;1.30;;;16.40;99.90;;;;;;4961983;28;20051;-68
2021/05/12 11:58:11;;;;;;;5.90;1.25;;;16.40;99.90;;;;;;4969589;28;20085;-69
2021/05/12 12:05:17;;;;;;;4.32;1.25;;;16.50;99.90;;;;;;4962501;28;20058;-69
2021/05/12 12:08:22;;;;;;;6.97;1.52;;;16.60;99.90;;;;;;4977437;28;20144;-69
2021/05/12 12:11:18;;;;;;;3.35;1.08;;;16.70;99.90;;;;;;4961178;28;20047;-68
2021/05/12 12:18:00;;;;;;;5.43;1.38;;;16.90;99.90;;;;;;4961990;28;20041;-69
2021/05/12 12:20:44;;;;;;;5.13;1.23;;;17.00;99.90;;;;;;4957450;28;20138;-68
2021/05/12 12:23:33;;;;;;;4.67;1.10;;;17.10;99.90;;;;;;4958825;28;20061;-69
2021/05/12 12:26:16;;;;;;;4.20;1.33;;;17.20;99.90;;;;;;4962776;28;20054;-69
2021/05/12 12:32:52;;;;;;;2.92;1.00;;;17.20;99.90;;;;;;4960998;28;20059;-69
2021/05/12 12:35:23;;;;;;;7.55;1.33;;;17.40;99.90;;;;;;4974012;28;20042;-69
2021/05/12 12:38:14;;;;;;;5.63;1.30;;;17.40;99.90;;;;;;4973643;28;20050;-69
2021/05/12 12:40:51;;;;;;;6.78;1.13;;;17.40;99.90;;;;;;4957897;28;20130;-69
2021/05/12 12:43:42;;;;;;;4.50;0.95;;;17.40;99.90;;;;;;4970543;28;20047;-68
2021/05/12 12:46:24;;;;;;;2.63;0.90;;;17.30;99.90;;;;;;4960625;28;20042;-68
2021/05/12 12:52:53;;;;;;;6.75;1.33;;;17.30;99.90;;;;;;4957224;28;20062;-68
2021/05/12 12:56:11;;;;;;;3.33;0.80;;;17.40;99.90;;;;;;4966824;28;20075;-69
2021/05/12 12:58:41;;;;;;;8.05;1.13;;;17.40;99.90;;;;;;4968297;28;20051;-69
2021/05/12 13:28:06;;;;;;;6.82;1.08;;;17.30;99.90;;;;;;4959146;28;20474;-69
2021/05/12 13:31:03;;;;;;;3.22;0.90;;;17.30;99.90;;;;;;4957109;28;20078;-70
2021/05/12 13:33:33;;;;;;;7.15;1.13;;;17.40;99.90;;;;;;4961999;28;20121;-69
2021/05/12 13:36:10;;;;;;;6.15;1.20;;;17.50;99.90;;;;;;4971123;28;20039;-69
2021/05/12 13:39:15;;;;;;;5.22;1.00;;;17.50;99.90;;;;;;4972538;28;20047;-69
2021/05/12 13:45:41;;;;;;;5.88;1.27;;;17.50;99.90;;;;;;4956482;29;20043;-69
2021/05/12 13:48:32;;;;;;;6.82;1.60;;;17.20;99.90;;;;;;4972591;28;20047;-68
2021/05/12 13:51:00;;;;;;;3.88;1.10;;;17.10;99.90;;;;;;4984253;28;20447;-69
2021/05/12 14:06:04;;;;;;;6.05;1.05;;;17.00;99.90;;;;;;4962563;28;20038;-69
2021/05/12 14:08:41;;;;;;;7.95;1.67;;;17.20;99.90;;;;;;4970414;28;20042;-68
2021/05/12 14:18:34;;;;;;;6.35;1.45;;;17.70;99.90;;;;;;4972310;28;20062;-69
2021/05/12 14:21:03;;;;;;;5.85;1.00;;;17.90;99.90;;;;;;4975478;28;20050;-69
2021/05/12 14:23:41;;;;;;;2.30;0.80;;;17.90;99.90;;;;;;4957280;28;20039;-68
2021/05/12 14:26:35;;;;;;;3.38;0.80;;;17.90;99.90;;;;;;4972614;28;20105;-68
2021/05/12 14:29:19;;;;;;;10.38;1.38;;;17.90;99.90;;;;;;4969689;28;20035;-68
2021/05/12 14:31:49;;;;;;;4.07;1.13;;;18.00;99.90;;;;;;4963065;28;20053;-69
2021/05/12 14:38:12;;;;;;;5.97;1.27;;;18.20;99.90;;;;;;4975001;28;20037;-68
2021/05/12 14:44:32;;;;;;;5.68;1.05;;;18.20;99.90;;;;;;4974553;28;20030;-68
2021/05/12 14:47:06;;;;;;;7.25;1.63;;;18.20;99.90;;;;;;4968175;28;20043;-68
2021/05/12 14:49:54;;;;;;;5.22;1.25;;;18.20;99.90;;;;;;4949490;28;20497;-66
2021/05/12 15:08:48;;;;;;;7.43;1.40;;;18.00;99.90;;;;;;4970673;28;20055;-66
2021/05/12 15:11:32;;;;;;;6.43;1.15;;;17.90;99.90;;;;;;4955433;28;20534;-67
2021/05/12 15:14:00;;;;;;;4.95;1.02;;;17.80;99.90;;;;;;4960557;28;20102;-67
2021/05/12 15:24:04;;;;;;;8.85;1.45;;;17.70;99.90;;;;;;4955729;28;20035;-68
2021/05/12 15:26:47;;;;;;;4.30;1.15;;;17.80;99.90;;;;;;4958521;28;20046;-69
2021/05/12 15:29:28;;;;;;;7.78;1.50;;;17.90;99.90;;;;;;4959506;28;20066;-69
2021/05/12 15:36:03;;;;;;;5.63;1.20;;;17.90;99.90;;;;;;4961933;28;20034;-66
2021/05/12 15:38:39;;;;;;;9.18;1.67;;;17.80;99.90;;;;;;4972461;28;20053;-65
2021/05/12 15:41:43;;;;;;;5.22;1.08;;;17.70;99.90;;;;;;4954682;28;20040;-65
2021/05/12 15:44:27;;;;;;;;;;;17.70;99.90;;;;;;4955456;28;20047;-64
2021/05/12 15:46:56;;;;;;;4.57;1.17;;;17.60;99.90;;;;;;4959526;28;19918;-65
2021/05/12 15:49:29;;;;;;;6.97;1.60;;;17.60;99.90;;;;;;4954510;28;20050;-65
2021/05/12 15:56:00;;;;;;;9.60;1.92;;;17.20;99.90;;;;;;4968819;28;20433;-66
2021/05/12 15:58:31;;;;;;;10.85;1.80;;;17.00;99.90;;;;;;4968831;28;20407;-66
2021/05/12 16:08:33;;;;;;;11.90;2.00;;;16.40;99.90;;;;;;4966369;28;20098;-66
2021/05/12 16:11:08;;;;;;;9.43;1.95;;;16.30;99.90;;;;;;4973953;28;20100;-66
2021/05/12 16:13:40;;;;;;;13.50;2.80;;;16.20;99.90;;;;;;4957228;28;20074;-66
2021/05/12 16:16:34;;;;;;;8.85;1.63;;;16.10;99.90;;;;;;4958782;28;20126;-68
2021/05/12 16:19:29;;;;;;;5.35;1.30;;;16.20;99.90;;;;;;4953077;28;20063;-69
2021/05/12 16:26:06;;;;;;;5.88;1.88;;;16.10;99.90;;;;;;4974382;28;20097;-67
2021/05/12 16:28:41;;;;;;;11.13;2.05;;;16.20;99.90;;;;;;4959082;28;20043;-68
2021/05/12 16:31:21;;;;;;;8.27;1.75;;;16.20;99.90;;;;;;4972136;28;20375;-70
2021/05/12 16:33:49;;;;;;;7.25;1.65;;;16.10;99.90;;;;;;4965097;28;20471;-67
2021/05/12 16:36:28;;;;;;;15.15;2.03;;;16.00;99.90;;;;;;4958838;28;20376;-70
2021/05/12 16:39:03;;;;;;;10.23;2.00;;;16.00;99.90;;;;;;4973618;28;20051;-70
2021/05/12 16:52:13;;;;;;;14.30;2.13;;;15.60;99.90;;;;;;4964869;28;20034;-67
2021/05/12 16:58:19;;;;;;;14.35;2.50;;;15.30;99.90;;;;;;4976923;28;20053;-68
2021/05/12 17:05:23;;;;;;;10.88;2.35;;;15.00;99.90;;;;;;4957377;29;20054;-67
2021/05/12 17:11:56;;;;;;;11.93;1.80;;;14.70;99.90;;;;;;4957224;29;20038;-67
2021/05/12 17:18:21;;;;;;;16.95;3.25;;;14.60;99.90;;;;;;4976399;28;20042;-69
2021/05/12 17:21:25;;;;;;;10.30;1.98;;;14.50;99.90;;;;;;4976696;28;20063;-68
2021/05/12 17:31:30;;;;;;;10.52;2.05;;;14.50;99.90;;;;;;4976241;28;20033;-68
2021/05/12 17:37:37;;;;;;;19.23;3.22;;;14.40;99.90;;;;;;4976161;28;20042;-65
2021/05/12 17:43:50;;;;;;;14.43;2.63;;;14.10;99.90;;;;;;4973901;28;20034;-69
2021/05/12 17:46:19;;;;;;;15.43;2.95;;;14.00;99.90;;;;;;4941630;28;20035;-67
2021/05/12 17:49:18;;;;;;;17.27;3.17;;;13.90;99.90;;;;;;4959196;28;20035;-67
2021/05/12 17:51:46;;;;;;;16.00;2.72;;;13.80;99.90;;;;;;4956745;28;20039;-68
2021/05/12 17:54:18;;;;;;;16.13;2.45;;;13.80;99.90;;;;;;4968192;28;20130;-68
2021/05/12 17:56:51;;;;;;;10.23;2.22;;;13.70;99.90;;;;;;4972411;28;20050;-68
2021/05/12 17:59:55;;;;;;;21.48;3.20;;;13.70;99.90;;;;;;4954979;28;20044;-68
2021/05/12 18:06:04;;;;;;;13.60;2.45;;;13.70;99.90;;;;;;4955865;28;20082;-68
2021/05/12 18:08:43;;;;;;;10.73;2.50;;;13.70;99.90;;;;;;4960293;28;20098;-69
2021/05/12 18:19:17;;;;;;;20.55;3.30;;;13.50;99.90;;;;;;4957224;28;20058;-69
2021/05/12 18:26:07;;;;;;;12.32;2.10;;;13.50;99.90;;;;;;4967357;28;20034;-69
2021/05/12 18:29:11;;;;;;;15.50;2.42;;;13.40;99.90;;;;;;4969945;28;20125;-69
2021/05/12 18:35:37;;;;;;;18.10;3.88;;;13.30;99.90;;;;;;4967387;28;20077;-68
2021/05/12 18:38:39;;;;;;;9.75;2.25;;;13.20;99.90;;;;;;4969430;28;20047;-68
2021/05/12 18:41:08;;;;;;;10.23;2.00;;;13.20;99.90;;;;;;4965440;28;20050;-68
2021/05/12 18:43:35;;;;;;;8.82;2.42;;;13.20;99.90;;;;;;4969168;28;20043;-68
2021/05/12 18:46:02;;;;;;;6.13;2.38;;;13.20;99.90;;;;;;4955794;28;20047;-68
2021/05/12 18:49:11;;;;;;;12.38;2.92;;;13.10;99.90;;;;;;4958337;28;20047;-68
2021/05/12 18:51:52;;;;;;;13.93;3.20;;;13.00;99.90;;;;;;4964760;28;20094;-68
2021/05/12 18:54:21;;;;;;;14.88;2.78;;;13.00;99.90;;;;;;4966647;28;20047;-68
2021/05/12 18:56:47;;;;;;;17.38;2.63;;;12.90;99.90;;;;;;4955883;28;20050;-68
2021/05/12 18:59:59;;;;;;;11.02;1.95;;;12.80;99.90;;;;;;4959742;28;20043;-68
2021/05/12 19:12:19;;;;;;;14.35;2.67;;;12.70;99.90;;;;;;4954921;28;20039;-68
2021/05/12 19:41:26;;;;;;;17.30;2.78;;;12.20;99.90;;;;;;4969675;28;20054;-69
2021/05/12 19:44:16;;;;;;;9.88;2.10;;;12.20;99.90;;;;;;4969422;28;20447;-69
2021/05/12 19:46:57;;;;;;;7.15;1.40;;;12.20;99.90;;;;;;4963325;28;20079;-67
2021/05/12 19:53:36;;;;;;;13.77;3.17;;;12.20;99.90;;;;;;4964850;28;20039;-67
2021/05/12 19:59:06;;;;;;;10.38;2.63;;;12.00;99.90;;;;;;4973010;28;20074;-67
2021/05/12 20:01:37;;;;;;;14.57;3.03;;;12.00;99.90;;;;;;4971147;28;20046;-67
2021/05/12 20:04:26;;;;;;;12.02;2.63;;;11.90;99.90;;;;;;4959813;28;20039;-67
2021/05/12 20:07:18;;;;;;;11.43;3.03;;;11.90;99.90;;;;;;4973637;28;20047;-68
2021/05/12 20:12:59;;;;;;;11.43;2.75;;;11.90;99.90;;;;;;4972391;28;20042;-67
2021/05/12 20:15:31;;;;;;;8.25;1.80;;;11.80;99.90;;;;;;4961728;28;20035;-67
2021/05/12 20:18:09;;;;;;;11.65;2.58;;;11.80;99.90;;;;;;4961421;28;20047;-67
2021/05/12 20:25:07;;;;;;;11.82;2.45;;;11.70;99.90;;;;;;4956068;28;20470;-67
2021/05/12 20:27:34;;;;;;;11.20;2.15;;;11.80;99.90;;;;;;4960097;28;20079;-67
2021/05/12 20:30:19;;;;;;;12.20;2.42;;;11.70;99.90;;;;;;4972733;28;20050;-68
2021/05/12 20:40:07;;;;;;;12.27;2.15;;;11.70;99.90;;;;;;4965990;28;20123;-68
2021/05/12 20:43:14;;;;;;;11.07;2.25;;;11.70;99.90;;;;;;4972769;28;20055;-68
2021/05/12 20:45:50;;;;;;;8.10;2.08;;;11.60;99.90;;;;;;4968918;28;20047;-68
2021/05/12 20:48:26;;;;;;;7.18;2.08;;;11.60;99.90;;;;;;4978329;28;20054;-68
2021/05/12 20:51:12;;;;;;;7.55;2.28;;;11.60;99.90;;;;;;4960663;28;20064;-68
2021/05/12 20:53:53;;;;;;;9.75;2.00;;;11.60;99.90;;;;;;4974984;28;20117;-68
2021/05/12 21:00:34;;;;;;;9.88;2.38;;;11.60;99.90;;;;;;4965095;28;20131;-68
2021/05/12 21:03:25;;;;;;;14.68;2.10;;;11.50;99.90;;;;;;4957514;28;20130;-68
2021/05/12 21:05:59;;;;;;;9.15;2.20;;;11.50;99.90;;;;;;4968589;28;20047;-68
2021/05/12 21:13:02;;;;;;;6.50;2.33;;;11.50;99.90;;;;;;4971891;28;20081;-68
2021/05/12 21:15:32;;;;;;;10.40;2.50;;;11.50;99.90;;;;;;4970472;28;20097;-67
2021/05/12 21:18:04;;;;;;;10.02;2.58;;;11.40;99.90;;;;;;4976175;28;20051;-68
2021/05/12 21:20:47;;;;;;;12.85;2.13;;;11.40;99.90;;;;;;4968908;28;20042;-67
2021/05/12 21:26:15;;;;;;;8.80;2.17;;;11.30;99.90;;;;;;4971107;28;20043;-68
2021/05/12 21:28:49;;;;;;;8.18;2.25;;;11.30;99.90;;;;;;4964071;28;20057;-67
2021/05/12 21:35:31;;;;;;;7.97;2.20;;;11.20;99.90;;;;;;4956444;28;20439;-67
2021/05/12 21:38:03;;;;;;;6.38;1.67;;;11.20;99.90;;;;;;4956637;28;20051;-68
2021/05/12 21:40:35;;;;;;;6.38;1.90;;;11.20;99.90;;;;;;4969997;28;20204;-68
2021/05/12 21:43:14;;;;;;;8.13;2.03;;;11.10;99.90;;;;;;4960162;28;20443;-68
2021/05/12 21:45:42;;;;;;;7.80;2.33;;;11.00;99.90;;;;;;4957427;28;20102;-67
2021/05/12 21:48:39;;;;;;;10.45;2.40;;;11.10;99.90;;;;;;4959060;28;20047;-68
2021/05/12 21:55:32;;;;;;;7.30;1.75;;;11.00;99.90;;;;;;4961589;28;20486;-68
2021/05/12 21:58:05;;;;;;;8.68;2.30;;;11.00;99.90;;;;;;4957960;28;20113;-67
2021/05/12 22:00:52;;;;;;;9.40;2.13;;;11.10;99.90;;;;;;4963641;28;20122;-68
2021/05/12 22:03:32;;;;;;;6.20;2.15;;;10.90;99.90;;;;;;4958152;28;20451;-67
2021/05/12 22:23:34;;;;;;;8.45;2.03;;;10.70;99.90;;;;;;4959259;28;20086;-67
2021/05/12 22:30:32;;;;;;;4.22;1.55;;;10.60;99.90;;;;;;4955518;29;20113;-67
2021/05/12 22:33:05;;;;;;;6.82;2.13;;;10.60;99.90;;;;;;4957677;28;20077;-67
2021/05/12 22:43:02;;;;;;;6.85;2.03;;;10.40;99.90;;;;;;4973957;28;20113;-67
2021/05/12 22:45:47;;;;;;;9.63;2.50;;;10.60;99.90;;;;;;4959252;28;20083;-67
2021/05/12 22:58:46;;;;;;;10.30;3.13;;;10.40;99.90;;;;;;4973594;28;20055;-67
2021/05/12 23:05:32;;;;;;;10.15;2.90;;;10.10;99.90;;;;;;4960079;28;20074;-67
2021/05/12 23:08:04;;;;;;;6.72;2.30;;;10.10;99.90;;;;;;4966905;28;20110;-67
2021/05/12 23:10:31;;;;;;;10.45;3.30;;;10.10;99.90;;;;;;4964645;28;20496;-67
2021/05/12 23:13:19;;;;;;;10.60;2.70;;;10.00;99.90;;;;;;4958155;28;20071;-67
2021/05/12 23:15:50;;;;;;;8.00;2.40;;;10.00;99.90;;;;;;4980089;28;20039;-67